createdAt,value
2023-04-27T00:01:22.061Z,102110.72
2023-04-27T00:03:51.129Z,102105.50
2023-04-27T00:06:18.730Z,102102.03
2023-04-27T00:08:46.088Z,102108.13
2023-04-27T00:11:14.186Z,102112.34
2023-04-27T00:13:41.555Z,102110.53
2023-04-27T00:16:08.889Z,102120.91
2023-04-27T00:18:37.058Z,102118.28
2023-04-27T00:21:04.321Z,102122.56
2023-04-27T00:23:31.736Z,102119.19
2023-04-27T00:25:59.159Z,102116.50
2023-04-27T00:28:26.852Z,102121.59
2023-04-27T00:30:55.047Z,102119.00
2023-04-27T00:33:22.370Z,102126.72
2023-04-27T00:35:49.724Z,102127.63
2023-04-27T00:38:17.011Z,102128.53
2023-04-27T00:40:44.393Z,102126.91
2023-04-27T00:43:11.777Z,102122.75
2023-04-27T00:45:43.164Z,102115.03
2023-04-27T00:48:11.741Z,102110.91
2023-04-27T00:50:39.706Z,102118.06
2023-04-27T00:53:09.828Z,102120.03
2023-04-27T00:55:37.224Z,102125.56
2023-04-27T00:58:04.641Z,102127.50
2023-04-27T01:00:32.143Z,102125.97
2023-04-27T01:03:01.459Z,102142.00
2023-04-27T01:05:30.151Z,102144.00
2023-04-27T01:07:58.498Z,102146.66
2023-04-27T01:10:28.518Z,102145.06
2023-04-27T01:12:55.983Z,102146.09
2023-04-27T01:15:23.487Z,102150.66
2023-04-27T01:18:01.407Z,102137.78
2023-04-27T01:20:30.544Z,102128.50
2023-04-27T01:22:58.876Z,102121.66
2023-04-27T01:25:26.276Z,102126.09
2023-04-27T01:27:54.478Z,102119.25
2023-04-27T01:30:24.565Z,102121.84
2023-04-27T01:32:52.701Z,102118.41
2023-04-27T01:35:21.328Z,102117.53
2023-04-27T01:37:48.576Z,102121.00
2023-04-27T01:40:18.442Z,102111.41
2023-04-27T01:42:47.648Z,102113.06
2023-04-27T01:45:14.920Z,102112.97
2023-04-27T01:47:42.196Z,102111.91
2023-04-27T01:50:09.808Z,102112.56
2023-04-27T01:52:37.194Z,102121.28
2023-04-27T01:55:04.952Z,102121.94
2023-04-27T01:57:32.343Z,102114.91
2023-04-27T01:59:59.636Z,102126.88
2023-04-27T02:02:27.570Z,102119.00
2023-04-27T02:04:55.120Z,102128.34
2023-04-27T02:07:22.437Z,102122.00
2023-04-27T02:09:50.125Z,102114.84
2023-04-27T02:12:17.369Z,102114.66
2023-04-27T02:14:44.676Z,102119.69
2023-04-27T02:17:12.155Z,102123.03
2023-04-27T02:19:40.148Z,102117.75
2023-04-27T02:22:12.974Z,102129.63
2023-04-27T02:24:40.443Z,102128.66
2023-04-27T02:27:07.821Z,102126.75
2023-04-27T02:29:38.983Z,102119.69
2023-04-27T02:32:06.880Z,102121.31
2023-04-27T02:34:34.191Z,102125.53
2023-04-27T02:37:01.834Z,102127.97
2023-04-27T02:39:29.139Z,102127.00
2023-04-27T02:41:56.305Z,102130.34
2023-04-27T02:44:23.908Z,102124.13
2023-04-27T02:46:51.726Z,102126.56
2023-04-27T02:49:19.136Z,102129.00
2023-04-27T02:51:46.542Z,102125.50
2023-04-27T02:54:13.819Z,102116.72
2023-04-27T02:56:44.411Z,102122.72
2023-04-27T02:59:12.116Z,102116.53
2023-04-27T03:01:39.988Z,102120.84
2023-04-27T03:04:08.916Z,102114.75
2023-04-27T03:06:36.432Z,102107.66
2023-04-27T03:09:03.961Z,102116.19
2023-04-27T03:11:31.301Z,102110.00
2023-04-27T03:13:58.983Z,102113.16
2023-04-27T03:16:26.232Z,102126.81
2023-04-27T03:18:53.692Z,102120.53
2023-04-27T03:21:21.048Z,102122.16
2023-04-27T03:23:49.893Z,102115.78
2023-04-27T03:26:17.504Z,102119.13
2023-04-27T03:28:44.790Z,102119.81
2023-04-27T03:31:15.550Z,102114.47
2023-04-27T03:33:42.932Z,102124.69
2023-04-27T03:36:11.266Z,102119.28
2023-04-27T03:38:44.251Z,102116.53
2023-04-27T03:41:12.733Z,102119.03
2023-04-27T03:43:39.974Z,102119.84
2023-04-27T03:46:10.220Z,102115.38
2023-04-27T03:48:38.503Z,102106.78
2023-04-27T03:51:06.915Z,102104.16
2023-04-27T03:53:34.874Z,102115.38
2023-04-27T03:56:02.469Z,102110.06
2023-04-27T03:58:29.850Z,102122.97
2023-04-27T04:01:14.861Z,102109.97
2023-04-27T04:03:43.066Z,102111.78
2023-04-27T04:06:11.065Z,102103.00
2023-04-27T04:08:39.910Z,102119.38
2023-04-27T04:11:07.594Z,102120.22
2023-04-27T04:13:36.622Z,102119.31
2023-04-27T04:16:09.476Z,102114.91
2023-04-27T04:18:37.806Z,102123.59
2023-04-27T04:21:06.458Z,102120.22
2023-04-27T04:23:33.971Z,102123.81
2023-04-27T04:26:03.009Z,102125.66
2023-04-27T04:28:36.466Z,102129.34
2023-04-27T04:31:05.979Z,102127.81
2023-04-27T04:33:33.912Z,102125.41
2023-04-27T04:36:04.892Z,102133.47
2023-04-27T04:38:33.936Z,102135.53
2023-04-27T04:41:01.580Z,102135.25
2023-04-27T04:43:33.206Z,102132.53
2023-04-27T04:46:04.148Z,102128.84
2023-04-27T04:48:32.412Z,102131.09
2023-04-27T04:50:59.640Z,102121.31
2023-04-27T04:53:27.019Z,102112.69
2023-04-27T04:55:56.856Z,102115.78
2023-04-27T04:58:24.336Z,102108.09
2023-04-27T05:00:51.699Z,102112.97
2023-04-27T05:03:21.154Z,102112.53
2023-04-27T05:05:48.696Z,102104.78
2023-04-27T05:08:17.263Z,102096.66
2023-04-27T05:10:51.611Z,102105.75
2023-04-27T05:13:19.335Z,102102.47
2023-04-27T05:15:46.802Z,102113.53
2023-04-27T05:18:14.299Z,102117.50
2023-04-27T05:20:41.933Z,102122.03
2023-04-27T05:23:09.208Z,102124.19
2023-04-27T05:25:41.715Z,102134.22
2023-04-27T05:28:10.133Z,102144.38
2023-04-27T05:30:37.485Z,102138.94
2023-04-27T05:33:05.300Z,102140.63
2023-04-27T05:35:33.983Z,102157.03
2023-04-27T05:38:01.666Z,102161.19
2023-04-27T05:40:29.250Z,102165.03
2023-04-27T05:42:56.680Z,102156.78
2023-04-27T05:45:24.071Z,102168.66
2023-04-27T05:47:53.507Z,102166.00
2023-04-27T05:50:21.707Z,102161.78
2023-04-27T05:52:48.939Z,102158.75
2023-04-27T05:55:16.249Z,102160.84
2023-04-27T05:57:43.602Z,102174.44
2023-04-27T06:00:12.704Z,102159.44
2023-04-27T06:02:42.977Z,102156.06
2023-04-27T06:05:10.767Z,102150.50
2023-04-27T06:07:38.755Z,102149.13
2023-04-27T06:10:09.140Z,102153.13
2023-04-27T06:12:36.458Z,102148.16
2023-04-27T06:15:08.464Z,102145.53
2023-04-27T06:17:38.878Z,102149.03
2023-04-27T06:20:09.719Z,102149.81
2023-04-27T06:22:40.525Z,102140.09
2023-04-27T06:25:10.738Z,102144.59
2023-04-27T06:27:38.209Z,102144.75
2023-04-27T06:30:06.512Z,102156.78
2023-04-27T06:32:33.999Z,102149.75
2023-04-27T06:35:04.766Z,102159.06
2023-04-27T06:37:32.815Z,102152.97
2023-04-27T06:40:00.217Z,102139.56
2023-04-27T06:42:27.547Z,102133.28
2023-04-27T06:44:56.420Z,102134.16
2023-04-27T06:47:23.749Z,102137.53
2023-04-27T06:49:51.745Z,102145.91
2023-04-27T06:52:19.424Z,102149.09
2023-04-27T06:54:47.122Z,102144.25
2023-04-27T06:57:14.429Z,102147.63
2023-04-27T06:59:42.298Z,102143.34
2023-04-27T07:02:09.808Z,102141.88
2023-04-27T07:04:40.751Z,102141.16
2023-04-27T07:07:09.684Z,102131.69
2023-04-27T07:09:37.562Z,102123.97
2023-04-27T07:12:06.846Z,102131.97
2023-04-27T07:14:34.140Z,102131.97
2023-04-27T07:17:01.840Z,102134.84
2023-04-27T07:19:29.301Z,102134.53
2023-04-27T07:21:56.710Z,102134.09
2023-04-27T07:24:24.128Z,102133.88
2023-04-27T07:26:51.538Z,102138.72
2023-04-27T07:29:26.452Z,102138.41
2023-04-27T07:31:55.905Z,102141.25
2023-04-27T07:34:24.216Z,102136.09
2023-04-27T07:36:55.880Z,102146.50
2023-04-27T07:39:24.063Z,102143.06
2023-04-27T07:41:53.079Z,102140.53
2023-04-27T07:44:21.678Z,102147.59
2023-04-27T07:46:49.368Z,102142.19
2023-04-27T07:49:17.220Z,102147.38
2023-04-27T07:51:44.551Z,102136.88
2023-04-27T07:54:12.436Z,102143.88
2023-04-27T07:56:43.535Z,102152.69
2023-04-27T07:59:11.356Z,102140.59
2023-04-27T08:01:44.281Z,102147.72
2023-04-27T08:06:41.352Z,102148.81
2023-04-27T08:09:09.570Z,102143.56
2023-04-27T08:11:36.909Z,102138.59
2023-04-27T08:14:04.207Z,102133.66
2023-04-27T08:16:31.617Z,102141.03
2023-04-27T08:19:00.578Z,102139.63
2023-04-27T08:21:30.540Z,102138.91
2023-04-27T08:23:57.981Z,102146.16
2023-04-27T08:26:26.464Z,102148.88
2023-04-27T08:28:54.139Z,102148.25
2023-04-27T08:31:22.143Z,102141.56
2023-04-27T08:33:58.323Z,102137.53
2023-04-27T08:36:26.835Z,102141.34
2023-04-27T08:38:54.181Z,102139.81
2023-04-27T08:41:22.474Z,102137.28
2023-04-27T08:43:50.771Z,102134.72
2023-04-27T08:46:20.632Z,102136.56
2023-04-27T08:48:50.164Z,102139.41
2023-04-27T08:51:17.400Z,102130.91
2023-04-27T08:53:52.207Z,102133.75
2023-04-27T08:56:19.975Z,102137.41
2023-04-27T08:58:47.038Z,102133.69
2023-04-27T09:01:14.083Z,102126.44
2023-04-27T09:03:42.030Z,102135.09
2023-04-27T09:06:09.464Z,102139.16
2023-04-27T09:08:42.815Z,102141.66
2023-04-27T09:11:10.302Z,102144.34
2023-04-27T09:13:41.927Z,102145.34
2023-04-27T09:16:09.345Z,102143.78
2023-04-27T09:18:38.974Z,102140.50
2023-04-27T09:21:07.339Z,102139.63
2023-04-27T09:23:36.624Z,102148.50
2023-04-27T09:26:08.205Z,102150.25
2023-04-27T09:28:37.717Z,102148.47
2023-04-27T09:31:05.260Z,102145.81
2023-04-27T09:33:33.871Z,102149.47
2023-04-27T09:36:02.102Z,102141.66
2023-04-27T09:38:29.803Z,102149.44
2023-04-27T09:40:57.300Z,102145.81
2023-04-27T09:43:25.007Z,102138.66
2023-04-27T09:45:52.066Z,102141.34
2023-04-27T09:48:20.964Z,102143.19
2023-04-27T09:50:49.168Z,102140.75
2023-04-27T09:53:19.182Z,102147.09
2023-04-27T09:55:46.391Z,102137.66
2023-04-27T09:58:28.791Z,102145.59
2023-04-27T10:00:58.930Z,102149.19
2023-04-27T10:03:44.248Z,102151.09
2023-04-27T10:06:32.612Z,102143.94
2023-04-27T10:09:00.467Z,102143.91
2023-04-27T10:11:54.790Z,102152.75
2023-04-27T10:14:23.313Z,102145.59
2023-04-27T10:16:54.731Z,102151.59
2023-04-27T10:19:24.620Z,102147.63
2023-04-27T10:21:55.271Z,102143.00
2023-04-27T10:24:31.628Z,102144.53
2023-04-27T10:27:03.424Z,102142.63
2023-04-27T10:29:37.210Z,102138.06
2023-04-27T10:32:33.799Z,102151.84
2023-04-27T10:35:07.942Z,102141.00
2023-04-27T10:37:41.584Z,102148.94
2023-04-27T10:40:17.767Z,102155.06
2023-04-27T10:42:45.866Z,102154.13
2023-04-27T10:45:13.764Z,102147.06
2023-04-27T10:47:45.708Z,102149.59
2023-04-27T10:50:14.157Z,102141.66
2023-04-27T10:52:44.521Z,102147.88
2023-04-27T10:55:15.763Z,102142.72
2023-04-27T10:57:53.837Z,102135.81
2023-04-27T11:00:28.608Z,102143.72
2023-04-27T11:02:56.947Z,102139.38
2023-04-27T11:05:33.294Z,102141.22
2023-04-27T11:08:07.578Z,102137.75
2023-04-27T11:10:37.791Z,102130.72
2023-04-27T11:13:09.278Z,102137.72
2023-04-27T11:15:47.159Z,102125.38
2023-04-27T11:18:15.809Z,102132.41
2023-04-27T11:20:45.882Z,102137.72
2023-04-27T11:23:23.034Z,102135.13
2023-04-27T11:25:50.366Z,102136.00
2023-04-27T11:28:20.099Z,102143.84
2023-04-27T11:30:47.887Z,102140.34
2023-04-27T11:33:15.304Z,102134.25
2023-04-27T11:35:42.822Z,102138.84
2023-04-27T11:38:15.746Z,102136.53
2023-04-27T11:40:43.108Z,102136.75
2023-04-27T11:43:16.362Z,102137.78
2023-04-27T11:45:48.587Z,102140.56
2023-04-27T11:48:15.922Z,102131.91
2023-04-27T11:50:50.142Z,102132.97
2023-04-27T11:53:18.808Z,102129.44
2023-04-27T11:55:52.797Z,102128.69
2023-04-27T11:58:21.129Z,102130.34
2023-04-27T12:00:48.251Z,102134.72
2023-04-27T12:03:16.092Z,102133.84
2023-04-27T12:05:51.507Z,102141.66
2023-04-27T12:08:18.919Z,102144.28
2023-04-27T12:10:46.408Z,102142.38
2023-04-27T12:13:14.288Z,102139.59
2023-04-27T12:15:43.104Z,102131.50
2023-04-27T12:18:10.463Z,102139.25
2023-04-27T12:20:37.678Z,102139.06
2023-04-27T12:23:04.741Z,102139.78
2023-04-27T12:25:31.837Z,102144.91
2023-04-27T12:27:58.884Z,102140.47
2023-04-27T12:30:26.033Z,102145.63
2023-04-27T12:32:53.725Z,102147.31
2023-04-27T12:35:20.898Z,102142.91
2023-04-27T12:37:49.645Z,102142.78
2023-04-27T12:40:16.991Z,102142.72
2023-04-27T12:42:44.188Z,102146.03
2023-04-27T12:45:11.279Z,102149.50
2023-04-27T12:47:58.287Z,102140.72
2023-04-27T12:50:26.079Z,102139.84
2023-04-27T12:52:53.229Z,102138.28
2023-04-27T12:55:32.170Z,102142.84
2023-04-27T12:58:00.561Z,102143.13
2023-04-27T13:00:27.882Z,102145.00
2023-04-27T13:02:55.729Z,102141.66
2023-04-27T13:05:23.278Z,102139.06
2023-04-27T13:07:50.420Z,102131.16
2023-04-27T13:10:17.696Z,102126.03
2023-04-27T13:12:44.806Z,102125.22
2023-04-27T13:15:12.012Z,102127.88
2023-04-27T13:17:43.526Z,102119.13
2023-04-27T13:20:11.256Z,102117.47
2023-04-27T13:22:40.882Z,102125.59
2023-04-27T13:25:09.533Z,102125.69
2023-04-27T13:27:36.828Z,102119.66
2023-04-27T13:30:05.378Z,102124.16
2023-04-27T13:32:32.624Z,102125.00
2023-04-27T13:34:59.939Z,102117.97
2023-04-27T13:37:27.394Z,102118.84
2023-04-27T13:39:54.800Z,102119.66
2023-04-27T13:42:24.022Z,102116.03
2023-04-27T13:44:53.465Z,102110.72
2023-04-27T13:47:20.607Z,102110.72
2023-04-27T13:49:47.710Z,102109.94
2023-04-27T13:52:14.878Z,102107.34
2023-04-27T13:54:42.086Z,102107.25
2023-04-27T13:57:09.157Z,102109.81
2023-04-27T13:59:36.208Z,102104.59
2023-04-27T14:02:03.781Z,102100.22
2023-04-27T14:04:31.084Z,102105.53
2023-04-27T14:06:58.587Z,102101.34
2023-04-27T14:09:27.031Z,102099.78
2023-04-27T14:11:57.236Z,102099.00
2023-04-27T14:14:24.755Z,102095.56
2023-04-27T14:16:56.913Z,102089.41
2023-04-27T14:19:24.137Z,102086.03
2023-04-27T14:21:51.543Z,102080.91
2023-04-27T14:24:18.695Z,102084.59
2023-04-27T14:26:47.581Z,102080.19
2023-04-27T14:29:15.361Z,102077.63
2023-04-27T14:31:43.047Z,102075.75
2023-04-27T14:34:11.688Z,102082.75
2023-04-27T14:36:38.795Z,102080.13
2023-04-27T14:39:07.379Z,102075.72
2023-04-27T14:41:35.609Z,102067.00
2023-04-27T14:44:03.267Z,102080.25
2023-04-27T14:46:30.441Z,102079.31
2023-04-27T14:48:57.545Z,102077.50
2023-04-27T14:51:26.954Z,102078.34
2023-04-27T14:53:54.282Z,102076.50
2023-04-27T14:56:23.199Z,102073.75
2023-04-27T14:58:50.442Z,102068.47
2023-04-27T15:01:17.790Z,102073.72
2023-04-27T15:03:45.214Z,102078.06
2023-04-27T15:06:12.440Z,102077.03
2023-04-27T15:08:40.755Z,102079.59
2023-04-27T15:11:08.014Z,102081.34
2023-04-27T15:13:35.307Z,102080.34
2023-04-27T15:16:02.561Z,102075.78
2023-04-27T15:18:29.708Z,102080.19
2023-04-27T15:20:58.216Z,102089.72
2023-04-27T15:23:26.125Z,102086.91
2023-04-27T15:25:57.715Z,102083.31
2023-04-27T15:28:24.987Z,102090.22
2023-04-27T15:30:52.063Z,102083.03
2023-04-27T15:33:19.235Z,102083.88
2023-04-27T15:35:46.695Z,102076.72
2023-04-27T15:38:15.693Z,102079.03
2023-04-27T15:40:42.852Z,102071.78
2023-04-27T15:43:10.111Z,102073.41
2023-04-27T15:45:37.192Z,102073.31
2023-04-27T15:48:08.211Z,102065.31
2023-04-27T15:50:35.641Z,102068.78
2023-04-27T15:53:03.638Z,102060.69
2023-04-27T15:55:33.167Z,102053.34
2023-04-27T15:58:00.297Z,102053.16
2023-04-27T16:00:27.415Z,102048.72
2023-04-27T16:02:55.313Z,102058.19
2023-04-27T16:05:22.420Z,102048.38
2023-04-27T16:07:49.755Z,102046.50
2023-04-27T16:10:16.901Z,102037.56
2023-04-27T16:12:44.081Z,102039.34
2023-04-27T16:15:11.792Z,102033.94
2023-04-27T16:17:39.223Z,102032.03
2023-04-27T16:20:07.111Z,102029.16
2023-04-27T16:22:36.806Z,102022.03
2023-04-27T16:25:10.302Z,102022.09
2023-04-27T16:27:39.409Z,102015.94
2023-04-27T16:30:07.569Z,102022.84
2023-04-27T16:32:35.762Z,102020.91
2023-04-27T16:35:03.588Z,102021.72
2023-04-27T16:37:32.999Z,102039.34
2023-04-27T16:40:02.601Z,102031.44
2023-04-27T16:42:29.698Z,102021.72
2023-04-27T16:44:57.001Z,102018.91
2023-04-27T16:47:24.237Z,102024.06
2023-04-27T16:49:51.655Z,102028.34
2023-04-27T16:52:20.063Z,102020.50
2023-04-27T16:54:47.208Z,102017.97
2023-04-27T16:57:14.663Z,102016.28
2023-04-27T16:59:43.352Z,102015.34
2023-04-27T17:02:23.142Z,102014.38
2023-04-27T17:04:52.902Z,102012.63
2023-04-27T17:07:20.508Z,102000.28
2023-04-27T17:09:47.851Z,102008.03
2023-04-27T17:12:16.845Z,102010.56
2023-04-27T17:14:46.493Z,102002.47
2023-04-27T17:17:13.711Z,102001.53
2023-04-27T17:19:40.777Z,102011.91
2023-04-27T17:22:13.224Z,102003.91
2023-04-27T17:24:42.459Z,102002.09
2023-04-27T17:27:09.846Z,102001.13
2023-04-27T17:29:37.365Z,102005.56
2023-04-27T17:32:05.130Z,102008.19
2023-04-27T17:34:32.318Z,102004.72
2023-04-27T17:36:59.508Z,102007.34
2023-04-27T17:39:26.883Z,101996.84
2023-04-27T17:41:55.473Z,101993.38
2023-04-27T17:44:22.764Z,102000.28
2023-04-27T17:46:55.021Z,102004.47
2023-04-27T17:49:22.705Z,101995.66
2023-04-27T17:51:50.157Z,101985.13
2023-04-27T17:54:17.394Z,101992.19
2023-04-27T17:56:44.512Z,101988.47
2023-04-27T17:59:11.646Z,101993.56
2023-04-27T18:01:38.775Z,101986.44
2023-04-27T18:04:07.431Z,101985.38
2023-04-27T18:06:34.760Z,102001.03
2023-04-27T18:09:02.086Z,101985.09
2023-04-27T18:11:29.530Z,101978.69
2023-04-27T18:13:58.450Z,101974.28
2023-04-27T18:16:25.886Z,101975.06
2023-04-27T18:18:53.106Z,101968.72
2023-04-27T18:21:20.430Z,101980.88
2023-04-27T18:23:47.635Z,101965.81
2023-04-27T18:26:15.042Z,101963.09
2023-04-27T18:28:42.330Z,101975.31
2023-04-27T18:31:16.864Z,101969.91
2023-04-27T18:33:44.768Z,101965.34
2023-04-27T18:36:11.953Z,101960.78
2023-04-27T18:38:39.854Z,101973.69
2023-04-27T18:41:07.070Z,101959.59
2023-04-27T18:43:36.990Z,101970.00
2023-04-27T18:46:04.716Z,101973.38
2023-04-27T18:48:32.441Z,101967.97
2023-04-27T18:50:59.736Z,101973.84
2023-04-27T18:53:27.427Z,101977.09
2023-04-27T18:55:54.520Z,101976.97
2023-04-27T18:58:21.610Z,101983.09
2023-04-27T19:00:48.673Z,101981.22
2023-04-27T19:03:15.993Z,101985.47
2023-04-27T19:05:43.276Z,101986.28
2023-04-27T19:08:10.728Z,101977.53
2023-04-27T19:10:41.198Z,101981.84
2023-04-27T19:13:08.725Z,101983.53
2023-04-27T19:15:36.247Z,101986.03
2023-04-27T19:18:10.631Z,101978.91
2023-04-27T19:20:39.194Z,101971.78
2023-04-27T19:23:07.936Z,101980.41
2023-04-27T19:25:35.689Z,101978.63
2023-04-27T19:28:02.867Z,101977.69
2023-04-27T19:30:30.242Z,101975.84
2023-04-27T19:32:57.470Z,101974.91
2023-04-27T19:35:26.508Z,101977.31
2023-04-27T19:37:53.634Z,101978.06
2023-04-27T19:40:20.862Z,101981.44
2023-04-27T19:42:48.235Z,101983.13
2023-04-27T19:45:16.828Z,101980.41
2023-04-27T19:47:44.140Z,101987.31
2023-04-27T19:50:11.477Z,101984.72
2023-04-27T19:52:39.201Z,101974.91
2023-04-27T19:55:07.275Z,101977.53
2023-04-27T19:57:34.560Z,101981.97
2023-04-27T20:00:01.853Z,101974.03
2023-04-27T20:02:40.678Z,101972.22
2023-04-27T20:05:11.638Z,101973.81
2023-04-27T20:07:38.898Z,101978.06
2023-04-27T20:10:06.888Z,101971.81
2023-04-27T20:15:05.450Z,101968.13
2023-04-27T20:17:33.148Z,101968.88
2023-04-27T20:20:01.225Z,101966.97
2023-04-27T20:22:28.578Z,101963.56
2023-04-27T20:24:59.126Z,101973.94
2023-04-27T20:27:29.007Z,101967.75
2023-04-27T20:29:56.135Z,101964.91
2023-04-27T20:32:23.317Z,101961.34
2023-04-27T20:34:50.444Z,101955.16
2023-04-27T20:37:17.563Z,101963.78
2023-04-27T20:39:52.579Z,101958.44
2023-04-27T20:42:20.836Z,101959.28
2023-04-27T20:44:49.715Z,101954.03
2023-04-27T20:47:17.245Z,101950.50
2023-04-27T20:49:44.480Z,101960.09
2023-04-27T20:52:11.882Z,101935.59
2023-04-27T20:54:40.160Z,101939.00
2023-04-27T20:57:10.993Z,101933.56
2023-04-27T20:59:41.089Z,101928.28
2023-04-27T21:02:08.382Z,101940.47
2023-04-27T21:04:36.335Z,101939.59
2023-04-27T21:07:03.690Z,101934.28
2023-04-27T21:09:31.613Z,101929.91
2023-04-27T21:12:01.055Z,101925.44
2023-04-27T21:14:28.240Z,101925.44
2023-04-27T21:16:57.027Z,101927.09
2023-04-27T21:19:24.632Z,101934.84
2023-04-27T21:21:54.312Z,101919.13
2023-04-27T21:24:21.757Z,101919.84
2023-04-27T21:26:49.108Z,101925.94
2023-04-27T21:29:16.618Z,101916.22
2023-04-27T21:31:44.480Z,101916.06
2023-04-27T21:34:12.515Z,101910.81
2023-04-27T21:36:39.896Z,101905.59
2023-04-27T21:39:10.042Z,101895.06
2023-04-27T21:41:39.730Z,101901.97
2023-04-27T21:44:10.288Z,101899.41
2023-04-27T21:46:38.329Z,101891.50
2023-04-27T21:49:05.835Z,101881.81
2023-04-27T21:51:34.660Z,101877.38
2023-04-27T21:54:07.508Z,101875.50
2023-04-27T21:56:34.850Z,101868.53
2023-04-27T21:59:02.566Z,101881.56
2023-04-27T22:01:29.725Z,101870.13
2023-04-27T22:03:59.124Z,101857.78
2023-04-27T22:06:27.687Z,101862.06
2023-04-27T22:08:54.800Z,101864.53
2023-04-27T22:11:22.140Z,101869.69
2023-04-27T22:13:49.743Z,101867.97
2023-04-27T22:16:16.954Z,101875.75
2023-04-27T22:18:44.029Z,101873.13
2023-04-27T22:21:12.499Z,101863.44
2023-04-27T22:23:40.611Z,101858.13
2023-04-27T22:26:08.898Z,101849.25
2023-04-27T22:28:36.318Z,101850.91
2023-04-27T22:31:03.757Z,101846.47
2023-04-27T22:33:31.365Z,101852.53
2023-04-27T22:35:58.850Z,101849.84
2023-04-27T22:38:26.115Z,101841.13
2023-04-27T22:40:53.134Z,101831.50
2023-04-27T22:43:20.175Z,101840.16
2023-04-27T22:45:47.314Z,101826.13
2023-04-27T22:48:14.376Z,101838.34
2023-04-27T22:50:42.003Z,101833.19
2023-04-27T22:53:09.029Z,101829.63
2023-04-27T22:55:37.017Z,101831.38
2023-04-27T22:58:04.162Z,101820.91
2023-04-27T23:00:31.596Z,101816.56
2023-04-27T23:02:58.779Z,101818.34
2023-04-27T23:05:26.438Z,101819.25
2023-04-27T23:07:53.691Z,101814.84
2023-04-27T23:10:23.083Z,101814.78
2023-04-27T23:12:50.794Z,101810.31
2023-04-27T23:15:17.874Z,101805.94
2023-04-27T23:17:44.965Z,101801.53
2023-04-27T23:20:26.652Z,101806.75
2023-04-27T23:22:58.322Z,101801.47
2023-04-27T23:25:25.605Z,101802.25
2023-04-27T23:27:53.172Z,101799.56
2023-04-27T23:30:21.391Z,101819.59
2023-04-27T23:32:48.468Z,101803.84
2023-04-27T23:35:15.720Z,101793.31
2023-04-27T23:37:42.917Z,101791.56
2023-04-27T23:40:10.197Z,101800.22
2023-04-27T23:42:37.368Z,101792.34
2023-04-27T23:45:05.064Z,101776.66
2023-04-27T23:47:33.894Z,101769.63
2023-04-27T23:50:02.296Z,101772.31
2023-04-27T23:52:29.973Z,101770.50
2023-04-27T23:55:00.226Z,101777.47
2023-04-27T23:57:27.328Z,101776.59
2023-04-27T23:59:54.699Z,101765.22
